Time;durP1;ratioP1;P1;durP2;ratioP2;P2;SDS_P1;SDS_P2;PMS_P1;PMS_P2;Temp;Humidity;BMP_temperature;BMP_pressure;BME280_temperature;BME280_humidity;BME280_pressure;Samples;Min_cycle;Max_cycle;Signal;HPM_P1;HPM_P2
2021/09/15 00:01:34;;;;;;;0.40;0.40;;;7.60;99.90;;;;;;5009937;28;20026;-68
2021/09/15 00:03:59;;;;;;;0.57;0.57;;;7.70;99.90;;;;;;5011240;28;20018;-68
2021/09/15 00:06:25;;;;;;;2.28;0.75;;;7.60;99.90;;;;;;5011224;28;20032;-69
2021/09/15 00:08:51;;;;;;;0.57;0.57;;;7.60;99.90;;;;;;5009749;28;20090;-69
2021/09/15 00:11:19;;;;;;;0.73;0.50;;;7.60;99.90;;;;;;5011074;28;20037;-69
2021/09/15 00:13:45;;;;;;;0.70;0.70;;;7.60;99.90;;;;;;5010935;28;20040;-69
2021/09/15 00:16:11;;;;;;;1.13;0.70;;;7.60;99.90;;;;;;5010966;28;20485;-68
2021/09/15 00:18:37;;;;;;;0.95;0.60;;;7.60;99.90;;;;;;5010862;28;20026;-68
2021/09/15 00:21:03;;;;;;;1.95;0.60;;;7.60;99.90;;;;;;5011196;28;20052;-68
2021/09/15 00:23:29;;;;;;;0.60;0.60;;;7.60;99.90;;;;;;5010900;28;20478;-70
2021/09/15 00:25:55;;;;;;;0.60;0.60;;;7.60;99.90;;;;;;5010770;28;20041;-67
2021/09/15 00:28:20;;;;;;;0.77;0.60;;;7.60;99.90;;;;;;5010856;28;20035;-68
2021/09/15 00:30:46;;;;;;;0.73;0.70;;;7.60;99.90;;;;;;5010709;28;20113;-68
2021/09/15 00:33:12;;;;;;;0.60;0.60;;;7.60;99.90;;;;;;5010809;28;20060;-68
2021/09/15 00:35:38;;;;;;;0.63;0.63;;;7.60;99.90;;;;;;5010292;28;20097;-68
2021/09/15 00:38:04;;;;;;;3.05;0.55;;;7.60;99.90;;;;;;5011007;28;20060;-68
2021/09/15 00:40:29;;;;;;;1.42;0.63;;;7.60;99.90;;;;;;5010560;28;20112;-67
2021/09/15 00:42:55;;;;;;;1.55;0.70;;;7.60;99.90;;;;;;5010607;28;20026;-67
2021/09/15 00:45:21;;;;;;;0.73;0.70;;;7.60;99.90;;;;;;5010842;28;20046;-68
2021/09/15 00:47:47;;;;;;;0.68;0.68;;;7.60;99.90;;;;;;5010429;28;20026;-68
2021/09/15 00:50:13;;;;;;;0.60;0.60;;;7.60;99.90;;;;;;5010768;28;20029;-68
2021/09/15 00:52:39;;;;;;;1.17;0.70;;;7.50;99.90;;;;;;5010373;28;20026;-68
2021/09/15 00:55:06;;;;;;;0.70;0.70;;;7.50;99.90;;;;;;5010441;28;20052;-68
2021/09/15 00:57:31;;;;;;;0.80;0.80;;;7.40;99.90;;;;;;5010418;28;20386;-67
2021/09/15 00:59:57;;;;;;;0.68;0.68;;;7.40;99.90;;;;;;5010046;28;20037;-68
2021/09/15 01:02:23;;;;;;;0.55;0.55;;;7.40;99.90;;;;;;5010416;28;20025;-68
2021/09/15 01:04:49;;;;;;;1.35;0.82;;;7.40;99.90;;;;;;5010407;28;20210;-69
2021/09/15 01:07:14;;;;;;;2.42;0.68;;;7.30;99.90;;;;;;5010380;28;20419;-68
2021/09/15 01:09:40;;;;;;;0.50;0.50;;;7.30;99.90;;;;;;5010334;28;20034;-69
2021/09/15 01:12:10;;;;;;;0.60;0.60;;;7.30;99.90;;;;;;5010312;28;20474;-69
2021/09/15 01:14:39;;;;;;;0.60;0.60;;;7.30;99.90;;;;;;5010337;28;20086;-67
2021/09/15 01:17:04;;;;;;;0.70;0.70;;;7.30;99.90;;;;;;5010340;28;20040;-67
2021/09/15 01:48:37;;;;;;;0.60;0.60;;;7.20;99.90;;;;;;5008659;28;20129;-68
2021/09/15 01:51:02;;;;;;;0.80;0.80;;;7.20;99.90;;;;;;5009567;28;20025;-68
2021/09/15 01:53:28;;;;;;;0.68;0.68;;;7.20;99.90;;;;;;5009927;28;20026;-68
2021/09/15 01:55:54;;;;;;;1.08;0.90;;;7.20;99.90;;;;;;5009299;28;20125;-68
2021/09/15 01:58:19;;;;;;;3.05;0.70;;;7.20;99.90;;;;;;5009903;28;20030;-68
2021/09/15 02:00:45;;;;;;;0.70;0.70;;;7.20;99.90;;;;;;5009482;28;20037;-68
2021/09/15 02:03:11;;;;;;;0.80;0.70;;;7.20;99.90;;;;;;5009810;28;20378;-68
2021/09/15 02:05:36;;;;;;;2.08;0.90;;;7.20;99.90;;;;;;5009428;28;20571;-68
2021/09/15 02:08:02;;;;;;;0.57;0.57;;;7.20;99.90;;;;;;5009323;28;20026;-68
2021/09/15 02:10:28;;;;;;;2.15;0.70;;;7.20;99.90;;;;;;5009381;28;20033;-67
2021/09/15 02:12:54;;;;;;;1.80;0.70;;;7.20;99.90;;;;;;5009548;28;20022;-67
2021/09/15 02:15:19;;;;;;;0.70;0.70;;;7.20;99.90;;;;;;5009298;28;20477;-67
2021/09/15 02:17:45;;;;;;;0.60;0.60;;;7.10;99.90;;;;;;5009204;28;20026;-67
2021/09/15 02:20:11;;;;;;;1.13;0.80;;;7.10;99.90;;;;;;5009407;28;20045;-68
2021/09/15 02:22:37;;;;;;;0.77;0.68;;;7.10;99.90;;;;;;5009334;28;20022;-68
2021/09/15 02:25:07;;;;;;;0.80;0.77;;;7.10;99.90;;;;;;5009086;28;20435;-67
2021/09/15 02:27:32;;;;;;;3.67;0.90;;;7.10;99.90;;;;;;5009508;28;20018;-67
2021/09/15 02:29:58;;;;;;;1.23;0.77;;;7.10;99.90;;;;;;5009278;28;20504;-68
2021/09/15 02:32:24;;;;;;;1.65;0.60;;;7.00;99.90;;;;;;5009500;28;20044;-68
2021/09/15 02:34:50;;;;;;;1.15;0.75;;;7.00;99.90;;;;;;5009271;28;20480;-68
2021/09/15 02:37:15;;;;;;;1.77;0.70;;;7.00;99.90;;;;;;5009390;28;20022;-68
2021/09/15 02:39:41;;;;;;;0.68;0.65;;;6.90;99.90;;;;;;5009111;28;20042;-68
2021/09/15 02:42:07;;;;;;;1.10;0.90;;;6.90;99.90;;;;;;5009251;28;20366;-68
2021/09/15 02:44:33;;;;;;;0.90;0.68;;;6.90;99.90;;;;;;5009328;28;20022;-68
2021/09/15 02:46:59;;;;;;;0.70;0.70;;;6.90;99.90;;;;;;5009172;28;20026;-68
2021/09/15 02:49:27;;;;;;;0.98;0.77;;;6.80;99.90;;;;;;5009201;28;20465;-68
2021/09/15 02:51:54;;;;;;;0.60;0.60;;;6.80;99.90;;;;;;5009134;28;20116;-67
2021/09/15 02:54:20;;;;;;;0.80;0.80;;;6.80;99.90;;;;;;5008893;28;20443;-68
2021/09/15 02:56:46;;;;;;;0.95;0.80;;;6.80;99.90;;;;;;5008823;28;20030;-67
2021/09/15 02:59:12;;;;;;;2.03;0.90;;;6.80;99.90;;;;;;5010035;28;20034;-67
2021/09/15 03:01:38;;;;;;;1.45;0.88;;;6.70;99.90;;;;;;5012224;28;20489;-67
2021/09/15 03:04:04;;;;;;;1.58;1.48;;;6.70;99.90;;;;;;5012034;28;20041;-67
2021/09/15 03:06:30;;;;;;;1.90;0.68;;;6.70;99.90;;;;;;5012206;28;20022;-67
2021/09/15 03:08:56;;;;;;;0.80;0.80;;;6.60;99.90;;;;;;5012264;28;20026;-67
2021/09/15 03:11:22;;;;;;;0.82;0.82;;;6.60;99.90;;;;;;5012318;28;20373;-67
2021/09/15 03:13:47;;;;;;;3.15;0.80;;;6.60;99.90;;;;;;5012030;28;20101;-67
2021/09/15 03:16:14;;;;;;;0.90;0.70;;;6.50;99.90;;;;;;5011981;28;20086;-67
2021/09/15 03:18:40;;;;;;;0.70;0.70;;;6.50;99.90;;;;;;5012010;28;20090;-67
2021/09/15 03:21:06;;;;;;;2.15;0.60;;;6.50;99.90;;;;;;5011698;28;20042;-67
2021/09/15 03:23:32;;;;;;;2.80;0.98;;;6.50;99.90;;;;;;5011886;28;20474;-69
2021/09/15 03:25:57;;;;;;;0.70;0.70;;;6.50;99.90;;;;;;5011747;28;20026;-67
2021/09/15 03:28:23;;;;;;;0.80;0.80;;;6.50;99.90;;;;;;5011830;28;20075;-67
2021/09/15 03:30:49;;;;;;;2.83;1.30;;;6.40;99.90;;;;;;5011909;28;20037;-68
2021/09/15 03:33:14;;;;;;;0.82;0.80;;;6.40;99.90;;;;;;5012080;28;20117;-69
2021/09/15 03:35:40;;;;;;;3.08;1.02;;;6.30;99.90;;;;;;5011743;28;20082;-69
2021/09/15 03:38:06;;;;;;;0.98;0.88;;;6.30;99.90;;;;;;5011619;28;20030;-69
2021/09/15 03:40:31;;;;;;;1.35;0.80;;;6.30;99.90;;;;;;5011702;28;20124;-69
2021/09/15 03:42:57;;;;;;;1.52;1.00;;;6.30;99.90;;;;;;5011492;28;20022;-69
2021/09/15 03:45:23;;;;;;;1.38;0.80;;;6.20;99.90;;;;;;5011514;28;20030;-69
2021/09/15 03:47:48;;;;;;;0.75;0.75;;;6.30;99.90;;;;;;5011358;28;20030;-68
2021/09/15 03:50:14;;;;;;;2.42;0.80;;;6.20;99.90;;;;;;5011403;28;20030;-68
2021/09/15 03:52:40;;;;;;;1.02;0.90;;;6.20;99.90;;;;;;5011717;28;20029;-68
2021/09/15 03:55:06;;;;;;;1.73;0.80;;;6.10;99.90;;;;;;5011027;28;20417;-68
2021/09/15 03:57:32;;;;;;;0.95;0.90;;;6.00;99.90;;;;;;5011595;28;20029;-68
2021/09/15 03:59:57;;;;;;;1.35;1.10;;;5.90;99.90;;;;;;5011364;28;20034;-68
2021/09/15 04:02:23;;;;;;;0.82;0.80;;;5.80;99.90;;;;;;5011674;28;20402;-68
2021/09/15 04:04:49;;;;;;;3.95;0.98;;;5.80;99.90;;;;;;5011388;28;20482;-68
2021/09/15 04:07:14;;;;;;;2.45;0.88;;;5.80;99.90;;;;;;5011652;28;20046;-67
2021/09/15 04:09:40;;;;;;;1.15;1.00;;;5.70;99.90;;;;;;5011265;28;20101;-67
2021/09/15 04:12:06;;;;;;;1.38;0.80;;;5.70;99.90;;;;;;5010473;28;20388;-68
2021/09/15 04:14:32;;;;;;;1.25;1.00;;;5.70;99.90;;;;;;5011419;28;20133;-67
2021/09/15 04:16:57;;;;;;;1.08;0.98;;;5.70;99.90;;;;;;5011013;28;20029;-67
2021/09/15 04:19:23;;;;;;;2.15;0.90;;;5.70;99.90;;;;;;5010908;28;20477;-67
2021/09/15 04:21:49;;;;;;;0.90;0.90;;;5.60;99.90;;;;;;5011146;28;20550;-68
2021/09/15 04:32:14;;;;;;;2.00;1.10;;;5.60;99.90;;;;;;5011158;28;20045;-68
2021/09/15 04:34:40;;;;;;;3.00;1.20;;;5.60;99.90;;;;;;5010972;28;20030;-66
2021/09/15 04:37:06;;;;;;;5.15;1.20;;;5.60;99.90;;;;;;5010573;28;20053;-65
2021/09/15 04:39:31;;;;;;;2.05;1.13;;;5.60;99.90;;;;;;5010720;28;20045;-66
2021/09/15 04:41:57;;;;;;;1.13;1.00;;;5.80;99.90;;;;;;5010485;28;20469;-66
2021/09/15 04:44:23;;;;;;;2.33;1.35;;;6.00;99.90;;;;;;5009359;28;20041;-66
2021/09/15 04:46:48;;;;;;;3.90;1.10;;;6.00;99.90;;;;;;4996291;28;20058;-66
2021/09/15 04:49:14;;;;;;;1.23;0.93;;;5.90;99.90;;;;;;5004886;28;20079;-66
2021/09/15 04:51:40;;;;;;;3.25;1.08;;;5.90;99.90;;;;;;5007394;28;20061;-66
2021/09/15 04:54:05;;;;;;;1.85;1.00;;;5.90;99.90;;;;;;5000685;28;20030;-65
2021/09/15 04:56:31;;;;;;;1.67;0.93;;;6.00;99.90;;;;;;4996117;28;20375;-66
2021/09/15 04:58:57;;;;;;;2.63;1.10;;;6.00;99.90;;;;;;4997692;28;20068;-66
2021/09/15 05:01:22;;;;;;;1.63;1.00;;;5.90;99.90;;;;;;4999798;28;20030;-65
2021/09/15 05:03:48;;;;;;;1.48;1.00;;;5.90;99.90;;;;;;4999857;28;20061;-65
2021/09/15 05:06:14;;;;;;;2.65;1.00;;;6.00;99.90;;;;;;4999900;28;20026;-65
2021/09/15 05:08:39;;;;;;;5.97;1.70;;;6.00;99.90;;;;;;5001687;28;20030;-65
2021/09/15 05:11:05;;;;;;;1.35;1.00;;;6.00;99.90;;;;;;4996003;28;20027;-65
2021/09/15 05:13:31;;;;;;;1.88;0.95;;;6.00;99.90;;;;;;4990530;28;20101;-65
2021/09/15 05:15:57;;;;;;;2.20;1.10;;;6.00;99.90;;;;;;4990646;28;20091;-65
2021/09/15 05:18:26;;;;;;;1.23;1.13;;;6.00;99.90;;;;;;4989667;28;20029;-66
2021/09/15 05:20:52;;;;;;;2.30;1.20;;;6.10;99.90;;;;;;4989066;28;20034;-65
2021/09/15 05:23:17;;;;;;;2.22;1.38;;;6.10;99.90;;;;;;4989683;28;20072;-66
2021/09/15 05:25:43;;;;;;;1.58;1.10;;;6.10;99.90;;;;;;4990513;28;20103;-66
2021/09/15 05:28:09;;;;;;;1.10;1.00;;;6.20;99.90;;;;;;4990405;28;20053;-66
2021/09/15 05:30:34;;;;;;;1.13;1.00;;;6.60;99.90;;;;;;4990460;28;20055;-66
2021/09/15 05:33:00;;;;;;;1.73;1.10;;;6.70;99.90;;;;;;4989140;28;20022;-66
2021/09/15 05:35:26;;;;;;;1.33;1.05;;;6.70;99.90;;;;;;4990225;28;20528;-65
2021/09/15 05:37:51;;;;;;;1.20;1.10;;;6.60;99.90;;;;;;4995121;28;20022;-65
2021/09/15 05:40:17;;;;;;;2.30;1.40;;;6.60;99.90;;;;;;4996096;28;20099;-65
2021/09/15 05:42:43;;;;;;;4.70;1.10;;;6.60;99.90;;;;;;4994361;28;20031;-65
2021/09/15 05:45:09;;;;;;;2.20;1.17;;;6.90;99.90;;;;;;5004042;28;20033;-65
2021/09/15 05:47:35;;;;;;;2.63;1.17;;;7.30;99.90;;;;;;5009729;28;20026;-65
2021/09/15 05:50:01;;;;;;;1.63;0.98;;;7.30;99.90;;;;;;5009377;28;20021;-65
2021/09/15 05:52:27;;;;;;;1.80;1.48;;;7.20;99.90;;;;;;5009482;28;20036;-68
2021/09/15 05:54:53;;;;;;;1.60;1.00;;;7.10;99.90;;;;;;5009312;28;20053;-69
2021/09/15 05:57:19;;;;;;;1.15;1.05;;;7.00;99.90;;;;;;5009542;28;20060;-69
2021/09/15 05:59:44;;;;;;;4.78;1.35;;;7.00;99.90;;;;;;5009316;28;20061;-81
2021/09/15 06:02:10;;;;;;;0.93;0.88;;;7.00;99.90;;;;;;5009395;28;20022;-82
2021/09/15 06:04:36;;;;;;;6.90;1.10;;;7.70;99.90;;;;;;5009465;28;20215;-82
2021/09/15 06:07:02;;;;;;;1.30;1.20;;;8.40;99.90;;;;;;5004514;28;20105;-83
2021/09/15 06:09:27;;;;;;;1.88;1.40;;;8.80;99.90;;;;;;4998432;28;20501;-69
2021/09/15 06:11:53;;;;;;;1.85;1.17;;;9.10;99.90;;;;;;4998473;28;20022;-68
2021/09/15 06:14:20;;;;;;;5.10;1.25;;;8.90;99.90;;;;;;4999998;28;20029;-68
2021/09/15 06:16:45;;;;;;;6.57;1.30;;;8.60;99.90;;;;;;4997517;28;20022;-68
2021/09/15 06:19:11;;;;;;;3.85;1.10;;;8.30;99.90;;;;;;4999470;28;20018;-67
2021/09/15 06:21:37;;;;;;;2.00;1.20;;;8.10;99.90;;;;;;4997800;28;20493;-67
2021/09/15 06:24:03;;;;;;;3.17;1.15;;;7.90;99.90;;;;;;4989781;28;20059;-69
2021/09/15 06:26:29;;;;;;;9.45;1.88;;;7.80;99.90;;;;;;4989911;28;20027;-68
2021/09/15 06:28:55;;;;;;;7.45;2.10;;;7.60;99.90;;;;;;4989715;28;20042;-64
2021/09/15 06:31:22;;;;;;;7.10;2.20;;;7.50;99.90;;;;;;4989574;28;20023;-71
2021/09/15 06:33:48;;;;;;;3.05;1.42;;;7.60;99.90;;;;;;4990419;28;20075;-64
2021/09/15 06:36:15;;;;;;;3.63;1.20;;;7.90;99.90;;;;;;4992865;28;20105;-65
2021/09/15 06:38:42;;;;;;;2.65;1.60;;;7.90;99.90;;;;;;4993026;28;20509;-65
2021/09/15 06:41:08;;;;;;;2.20;1.75;;;7.80;99.90;;;;;;4992960;28;20487;-65
2021/09/15 06:43:34;;;;;;;5.53;1.52;;;7.70;99.90;;;;;;4993183;28;20092;-65
2021/09/15 06:46:00;;;;;;;5.43;1.40;;;7.60;99.90;;;;;;4992584;28;20474;-65
2021/09/15 06:48:26;;;;;;;5.18;1.48;;;7.50;99.90;;;;;;4992746;28;20055;-65
2021/09/15 06:50:51;;;;;;;7.18;1.42;;;7.50;99.90;;;;;;4992793;28;20046;-65
2021/09/15 06:53:17;;;;;;;7.70;1.50;;;7.50;99.90;;;;;;4993085;28;20479;-65
2021/09/15 06:55:43;;;;;;;2.33;1.40;;;7.50;99.90;;;;;;4992602;28;20430;-64
2021/09/15 06:58:09;;;;;;;4.20;1.33;;;7.50;99.90;;;;;;4992614;28;20053;-65
2021/09/15 07:00:35;;;;;;;3.85;1.10;;;7.50;99.90;;;;;;4992447;28;20035;-65
2021/09/15 07:03:02;;;;;;;1.90;1.10;;;7.50;99.90;;;;;;4992509;28;20160;-65
2021/09/15 07:05:28;;;;;;;1.83;1.20;;;7.50;99.90;;;;;;4992483;28;20054;-64
2021/09/15 07:07:55;;;;;;;2.17;1.30;;;7.60;99.90;;;;;;4992530;28;20030;-65
2021/09/15 07:10:21;;;;;;;3.78;1.35;;;7.60;99.90;;;;;;4992432;28;20036;-65
2021/09/15 07:12:47;;;;;;;2.00;1.13;;;7.60;99.90;;;;;;4992359;28;20042;-65
2021/09/15 07:15:14;;;;;;;4.38;1.20;;;7.60;99.90;;;;;;4992488;28;20109;-65
2021/09/15 07:17:42;;;;;;;3.30;1.10;;;7.60;99.90;;;;;;4992355;28;20037;-65
2021/09/15 07:20:08;;;;;;;3.50;1.45;;;7.60;99.90;;;;;;4992109;28;20054;-65
2021/09/15 07:22:34;;;;;;;1.30;1.00;;;7.70;99.90;;;;;;4992586;28;20079;-65
2021/09/15 07:24:59;;;;;;;1.05;0.88;;;7.70;99.90;;;;;;4992126;28;20026;-65
2021/09/15 07:27:25;;;;;;;1.23;0.88;;;7.70;99.90;;;;;;4992526;28;20030;-65
2021/09/15 07:29:51;;;;;;;4.68;1.30;;;7.70;99.90;;;;;;4992241;28;20430;-65
2021/09/15 07:32:17;;;;;;;2.85;1.08;;;7.70;99.90;;;;;;4991981;28;20566;-65
2021/09/15 07:34:45;;;;;;;0.80;0.80;;;7.70;99.90;;;;;;4992395;28;20030;-65
2021/09/15 07:37:14;;;;;;;2.67;1.30;;;7.80;99.90;;;;;;4991839;28;20022;-65
2021/09/15 07:39:40;;;;;;;1.52;1.20;;;7.80;99.90;;;;;;4992021;28;20050;-65
2021/09/15 07:42:06;;;;;;;2.35;1.40;;;7.80;99.90;;;;;;4991951;28;20022;-65
2021/09/15 07:44:32;;;;;;;3.05;1.35;;;7.80;99.90;;;;;;4991863;28;20062;-65
2021/09/15 07:46:58;;;;;;;2.05;1.73;;;7.80;99.90;;;;;;4990675;28;20123;-65
2021/09/15 07:49:23;;;;;;;1.15;1.05;;;7.80;99.90;;;;;;4992105;28;20468;-65
2021/09/15 07:51:49;;;;;;;1.63;1.40;;;7.80;99.90;;;;;;4991737;28;20367;-65
2021/09/15 07:54:15;;;;;;;8.38;1.10;;;7.90;99.90;;;;;;4991606;28;20107;-65
2021/09/15 07:56:41;;;;;;;2.33;1.58;;;7.90;99.90;;;;;;4991651;28;20052;-65
2021/09/15 07:59:06;;;;;;;1.58;1.40;;;7.90;99.90;;;;;;4991488;28;20071;-65
2021/09/15 08:01:32;;;;;;;5.40;1.42;;;8.00;99.90;;;;;;4991580;28;20034;-65
2021/09/15 08:03:58;;;;;;;2.72;1.15;;;8.00;99.90;;;;;;4991813;28;20022;-65
2021/09/15 08:06:23;;;;;;;1.42;1.15;;;8.00;99.90;;;;;;5011407;28;20033;-65
2021/09/15 08:08:49;;;;;;;1.42;1.33;;;8.00;99.90;;;;;;5000550;28;20531;-65
2021/09/15 08:11:15;;;;;;;2.08;1.25;;;8.00;99.90;;;;;;4991435;28;20023;-65
2021/09/15 08:13:41;;;;;;;1.15;0.85;;;8.00;99.90;;;;;;4991837;28;20027;-65
2021/09/15 08:16:07;;;;;;;4.30;1.70;;;8.10;99.90;;;;;;4991746;28;20073;-65
2021/09/15 08:18:33;;;;;;;14.40;3.35;;;8.10;99.90;;;;;;4992890;28;20375;-65
2021/09/15 08:21:00;;;;;;;7.55;1.65;;;8.10;99.90;;;;;;5008733;28;20524;-65
2021/09/15 08:23:26;;;;;;;1.42;1.08;;;8.20;99.90;;;;;;5006388;28;20516;-65
2021/09/15 08:25:52;;;;;;;3.17;1.40;;;8.20;99.90;;;;;;5010919;28;20030;-65
2021/09/15 08:28:18;;;;;;;11.75;1.90;;;8.30;99.90;;;;;;5011007;28;20058;-65
2021/09/15 08:30:44;;;;;;;1.25;1.15;;;8.30;99.90;;;;;;5011081;28;20073;-65
2021/09/15 08:33:09;;;;;;;3.70;1.17;;;8.40;99.90;;;;;;5010638;28;20461;-65
2021/09/15 08:35:35;;;;;;;2.03;1.20;;;8.40;99.90;;;;;;5010650;28;20082;-65
2021/09/15 08:38:01;;;;;;;3.55;1.30;;;8.40;99.90;;;;;;5010675;28;20614;-65
2021/09/15 08:40:26;;;;;;;2.47;1.35;;;8.40;99.90;;;;;;5010540;28;20084;-65
2021/09/15 08:42:52;;;;;;;2.60;1.67;;;8.50;99.90;;;;;;5010970;28;20026;-65
2021/09/15 08:45:23;;;;;;;1.95;1.20;;;8.50;99.90;;;;;;5010365;28;20030;-65
2021/09/15 08:47:51;;;;;;;1.92;1.23;;;8.50;99.90;;;;;;5010524;28;20162;-65
2021/09/15 08:50:17;;;;;;;2.25;1.10;;;8.60;99.90;;;;;;5010541;28;20041;-64
2021/09/15 08:52:43;;;;;;;3.00;1.20;;;8.50;99.90;;;;;;5010467;28;20088;-65
2021/09/15 08:55:09;;;;;;;1.20;1.10;;;8.60;99.90;;;;;;5010178;28;20065;-64
2021/09/15 08:57:36;;;;;;;1.15;1.05;;;8.60;99.90;;;;;;5010445;28;20030;-65
2021/09/15 09:00:06;;;;;;;1.40;1.30;;;8.70;99.90;;;;;;5010140;28;20128;-65
2021/09/15 09:02:36;;;;;;;3.78;1.38;;;8.70;99.90;;;;;;5010275;28;20052;-65
2021/09/15 09:05:02;;;;;;;3.92;1.27;;;8.70;99.90;;;;;;5010019;28;20025;-65
2021/09/15 09:07:30;;;;;;;2.20;1.30;;;8.70;99.90;;;;;;5010231;28;20057;-65
2021/09/15 09:09:59;;;;;;;1.42;1.17;;;8.80;99.90;;;;;;5010346;28;20026;-66
2021/09/15 09:12:27;;;;;;;3.88;1.40;;;8.90;99.90;;;;;;5010064;28;20022;-66
2021/09/15 09:15:22;;;;;;;2.17;1.10;;;9.00;99.90;;;;;;5010182;28;20068;-65
2021/09/15 09:17:48;;;;;;;4.07;1.33;;;9.10;99.90;;;;;;5010192;28;20033;-65
2021/09/15 09:20:16;;;;;;;1.15;1.05;;;9.10;99.90;;;;;;5010101;28;20040;-66
2021/09/15 09:23:07;;;;;;;1.73;1.33;;;9.20;99.90;;;;;;5009367;28;20022;-65
2021/09/15 09:25:44;;;;;;;1.30;1.20;;;9.20;99.90;;;;;;4990432;28;20036;-65
2021/09/15 09:28:43;;;;;;;2.05;1.33;;;9.20;99.90;;;;;;4990321;28;20023;-66
2021/09/15 09:31:11;;;;;;;2.13;1.20;;;9.20;99.90;;;;;;4990196;28;20037;-66
2021/09/15 09:33:37;;;;;;;5.95;1.13;;;9.20;99.90;;;;;;4990418;28;20023;-65
2021/09/15 09:36:07;;;;;;;1.20;1.10;;;9.30;99.90;;;;;;4990383;28;20034;-66
2021/09/15 09:38:34;;;;;;;2.22;1.40;;;9.40;99.90;;;;;;4990583;28;20076;-66
2021/09/15 09:41:06;;;;;;;3.20;1.27;;;9.40;99.90;;;;;;4990485;28;20034;-66
2021/09/15 09:43:41;;;;;;;2.75;2.10;;;9.40;99.90;;;;;;4990400;28;20030;-66
2021/09/15 09:46:11;;;;;;;1.17;1.08;;;9.40;99.90;;;;;;4990360;28;20113;-66
2021/09/15 09:48:38;;;;;;;0.90;0.90;;;9.40;99.90;;;;;;4990569;28;20414;-66
2021/09/15 09:51:30;;;;;;;16.52;3.60;;;9.40;99.90;;;;;;4990043;28;20054;-66
2021/09/15 09:54:20;;;;;;;1.20;1.10;;;9.50;99.90;;;;;;4990034;28;20022;-66
2021/09/15 09:56:48;;;;;;;2.42;1.17;;;9.50;99.90;;;;;;4990304;28;20383;-66
2021/09/15 09:59:14;;;;;;;1.52;1.20;;;9.50;99.90;;;;;;4990059;28;20019;-65
2021/09/15 10:01:53;;;;;;;0.80;0.80;;;9.60;99.90;;;;;;4992003;28;20065;-66
2021/09/15 10:04:20;;;;;;;1.05;0.90;;;9.70;99.90;;;;;;4989736;28;20532;-65
2021/09/15 10:06:47;;;;;;;1.17;1.08;;;9.70;99.90;;;;;;4989686;28;20045;-67
2021/09/15 10:09:14;;;;;;;1.50;1.30;;;9.70;99.90;;;;;;4989178;28;20025;-66
2021/09/15 10:11:41;;;;;;;1.80;1.23;;;9.80;99.90;;;;;;4990053;28;20031;-66
2021/09/15 10:14:14;;;;;;;1.27;1.17;;;9.80;99.90;;;;;;4989630;28;20022;-66
2021/09/15 10:16:54;;;;;;;3.17;1.38;;;9.80;99.90;;;;;;4989995;28;20034;-66
2021/09/15 10:19:27;;;;;;;5.07;1.25;;;9.90;99.90;;;;;;4989545;28;20023;-66
2021/09/15 10:21:58;;;;;;;3.30;1.60;;;9.90;99.90;;;;;;4989997;28;20042;-66
2021/09/15 10:24:47;;;;;;;6.88;1.48;;;10.00;99.90;;;;;;4989791;28;20071;-66
2021/09/15 10:27:13;;;;;;;9.30;1.70;;;10.00;99.90;;;;;;4989295;28;20085;-74
2021/09/15 10:29:41;;;;;;;6.03;1.20;;;10.10;99.90;;;;;;4989957;28;20109;-66
2021/09/15 11:49:43;;;;;;;4.93;1.70;;;10.40;99.90;;;;;;5065284;28;20386;-69
2021/09/15 11:52:09;;;;;;;2.65;1.60;;;10.70;99.90;;;;;;5065037;28;20528;-70
2021/09/15 11:54:34;;;;;;;2.55;1.35;;;11.70;99.90;;;;;;5065438;28;20021;-71
2021/09/15 11:57:05;;;;;;;3.88;1.50;;;12.50;99.90;;;;;;5065201;28;20536;-71
2021/09/15 11:59:32;;;;;;;3.40;1.38;;;13.10;99.90;;;;;;5065073;28;20487;-73
2021/09/15 12:01:59;;;;;;;1.33;1.20;;;13.70;99.90;;;;;;5065503;28;20436;-66
2021/09/15 12:04:26;;;;;;;4.53;1.58;;;13.60;99.90;;;;;;5065476;28;20111;-66
2021/09/15 12:06:53;;;;;;;3.15;1.35;;;12.80;99.90;;;;;;5065138;28;20032;-66
2021/09/15 12:09:20;;;;;;;6.70;1.50;;;12.20;99.90;;;;;;5065277;28;20025;-69
2021/09/15 12:11:50;;;;;;;2.50;1.35;;;11.80;99.90;;;;;;5065383;28;20052;-66
2021/09/15 12:14:16;;;;;;;2.70;1.43;;;11.60;99.90;;;;;;5065202;28;20032;-66
2021/09/15 12:16:43;;;;;;;1.30;1.20;;;11.40;99.90;;;;;;5064724;28;20028;-68
2021/09/15 12:19:20;;;;;;;1.33;1.00;;;11.30;99.90;;;;;;5064980;28;20056;-67
2021/09/15 12:21:49;;;;;;;20.20;1.77;;;11.10;99.90;;;;;;5064829;28;20021;-68
2021/09/15 12:24:16;;;;;;;4.43;1.33;;;11.10;99.90;;;;;;5064734;28;20429;-68
2021/09/15 12:26:42;;;;;;;2.38;1.25;;;11.00;99.90;;;;;;5064386;28;20384;-68
2021/09/15 12:29:10;;;;;;;3.53;1.38;;;11.00;99.90;;;;;;5064480;28;20035;-67
2021/09/15 12:31:59;;;;;;;2.97;1.30;;;10.90;99.90;;;;;;5064394;28;20060;-66
2021/09/15 12:34:30;;;;;;;2.22;1.20;;;10.80;99.90;;;;;;5062832;28;20020;-66
2021/09/15 12:37:16;;;;;;;3.97;1.20;;;10.70;99.90;;;;;;5064533;28;20076;-66
2021/09/15 12:40:03;;;;;;;1.38;1.27;;;10.70;99.90;;;;;;5058644;27;20044;-66
2021/09/15 12:42:34;;;;;;;3.95;1.63;;;10.60;99.90;;;;;;5044884;28;20045;-66
2021/09/15 12:45:08;;;;;;;1.75;1.30;;;10.60;99.90;;;;;;5044628;28;20030;-66
2021/09/15 12:47:37;;;;;;;2.95;1.25;;;10.50;99.90;;;;;;5044235;28;20520;-67
2021/09/15 12:50:16;;;;;;;2.83;1.60;;;10.50;99.90;;;;;;5034611;28;20040;-67
2021/09/15 12:52:43;;;;;;;8.35;1.55;;;10.50;99.90;;;;;;5031715;28;20029;-67
2021/09/15 12:55:17;;;;;;;1.35;1.25;;;10.50;99.90;;;;;;5031471;28;20032;-67
2021/09/15 12:57:57;;;;;;;6.25;1.58;;;10.50;99.90;;;;;;5031221;28;20040;-66
2021/09/15 13:00:34;;;;;;;1.83;1.42;;;10.40;99.90;;;;;;5031213;28;20443;-67
2021/09/15 13:03:05;;;;;;;29.40;2.65;;;10.40;99.90;;;;;;5031390;28;20036;-67
2021/09/15 13:05:40;;;;;;;8.30;2.20;;;10.40;99.90;;;;;;5031071;28;20500;-67
2021/09/15 13:08:20;;;;;;;10.02;1.50;;;10.40;99.90;;;;;;5031081;28;20105;-67
2021/09/15 13:10:48;;;;;;;1.58;1.48;;;10.30;99.90;;;;;;5031062;28;20143;-66
2021/09/15 13:13:18;;;;;;;5.65;1.92;;;10.30;99.90;;;;;;5031052;28;20034;-66
2021/09/15 13:15:45;;;;;;;1.85;1.40;;;10.30;99.90;;;;;;5030697;28;20553;-67
2021/09/15 13:18:11;;;;;;;1.80;1.70;;;10.30;99.90;;;;;;5030963;28;20045;-67
2021/09/15 13:20:37;;;;;;;1.70;1.60;;;10.40;99.90;;;;;;5030799;28;20029;-67
2021/09/15 13:23:02;;;;;;;6.78;2.60;;;10.40;99.90;;;;;;5031207;28;20409;-67
2021/09/15 13:25:28;;;;;;;3.00;1.90;;;10.30;99.90;;;;;;5030627;28;20426;-67
2021/09/15 13:27:54;;;;;;;5.80;2.35;;;10.30;99.90;;;;;;5030764;28;20150;-67
2021/09/15 13:30:20;;;;;;;3.28;2.10;;;10.30;99.90;;;;;;5030771;28;20029;-66
2021/09/15 13:32:45;;;;;;;3.25;2.22;;;10.30;99.90;;;;;;5030690;28;20021;-66
2021/09/15 13:35:11;;;;;;;2.55;2.25;;;10.30;99.90;;;;;;5030827;28;20138;-66
2021/09/15 13:37:37;;;;;;;4.45;2.50;;;10.30;99.90;;;;;;5030412;28;20120;-66
2021/09/15 13:40:07;;;;;;;2.88;2.17;;;10.20;99.90;;;;;;5030104;28;20049;-66
2021/09/15 13:42:33;;;;;;;2.70;2.10;;;10.20;99.90;;;;;;5028194;28;20033;-69
2021/09/15 13:44:59;;;;;;;2.25;2.00;;;10.10;99.90;;;;;;5030725;28;20030;-67
2021/09/15 13:47:25;;;;;;;7.47;1.88;;;10.10;99.90;;;;;;5030669;28;20025;-67
2021/09/15 13:49:51;;;;;;;3.92;2.72;;;10.00;99.90;;;;;;5029791;28;20087;-67
2021/09/15 13:52:17;;;;;;;2.75;2.50;;;10.00;99.90;;;;;;5030056;28;20415;-67
2021/09/15 13:54:46;;;;;;;3.63;2.47;;;10.00;99.90;;;;;;5029919;28;20078;-67
2021/09/15 13:57:13;;;;;;;2.75;2.30;;;10.00;99.90;;;;;;5029703;28;20036;-65
2021/09/15 13:59:40;;;;;;;4.00;2.38;;;10.00;99.90;;;;;;5027301;28;20022;-66
2021/09/15 14:02:06;;;;;;;3.33;2.33;;;9.90;99.90;;;;;;5028941;28;20029;-66
2021/09/15 14:04:33;;;;;;;2.65;1.80;;;9.90;99.90;;;;;;5030062;28;20029;-65
2021/09/15 14:06:59;;;;;;;2.85;2.50;;;9.80;99.90;;;;;;5029722;28;20021;-67
2021/09/15 14:09:24;;;;;;;3.45;2.30;;;9.80;99.90;;;;;;5030049;28;20105;-67
2021/09/15 14:11:50;;;;;;;7.45;2.50;;;9.80;99.90;;;;;;5030047;28;20036;-67
2021/09/15 14:14:16;;;;;;;2.42;2.20;;;9.80;99.90;;;;;;5030238;28;20032;-67
2021/09/15 14:16:42;;;;;;;2.90;2.35;;;9.80;99.90;;;;;;5029653;28;20021;-68
2021/09/15 14:19:08;;;;;;;4.13;2.60;;;9.80;99.90;;;;;;5029290;28;20038;-74
2021/09/15 14:21:35;;;;;;;4.00;2.70;;;9.70;99.90;;;;;;5029558;28;20026;-68
2021/09/15 14:24:01;;;;;;;2.40;2.20;;;9.60;99.90;;;;;;5023621;28;20091;-67
2021/09/15 14:26:27;;;;;;;3.13;2.25;;;9.60;99.90;;;;;;5028674;28;20165;-68
2021/09/15 14:28:53;;;;;;;2.67;2.20;;;9.60;99.90;;;;;;5028928;28;20116;-67
2021/09/15 14:31:18;;;;;;;3.67;2.03;;;9.60;99.90;;;;;;5027705;28;20113;-66
2021/09/15 14:33:44;;;;;;;2.40;2.05;;;9.50;99.90;;;;;;5028924;28;20021;-66
2021/09/15 14:36:10;;;;;;;2.13;1.92;;;9.50;99.90;;;;;;5028878;28;20169;-66
2021/09/15 14:38:41;;;;;;;3.42;2.00;;;9.50;99.90;;;;;;5028908;28;20523;-66
2021/09/15 14:41:08;;;;;;;2.00;1.80;;;9.50;99.90;;;;;;5028777;28;20445;-66
2021/09/15 14:43:33;;;;;;;2.13;1.92;;;9.50;99.90;;;;;;5028821;28;20035;-66
2021/09/15 14:45:59;;;;;;;5.40;2.20;;;9.50;99.90;;;;;;5028700;28;20104;-66
2021/09/15 14:48:25;;;;;;;1.90;1.77;;;9.60;99.90;;;;;;5028705;28;20515;-66
2021/09/15 14:50:50;;;;;;;4.80;1.83;;;9.60;99.90;;;;;;5028566;28;20513;-66